createdAt,value
2022-10-25T04:31:03.666Z,26.53
2022-10-25T04:36:06.658Z,21.93
2022-10-25T04:41:10.307Z,22.87
2022-10-25T04:46:13.182Z,23.43
2022-10-25T04:51:17.196Z,22.07
2022-10-25T04:56:19.891Z,25.03
2022-10-25T05:01:22.686Z,24.57
2022-10-25T05:06:27.662Z,21.40
2022-10-25T05:11:30.436Z,22.50
2022-10-25T05:16:35.089Z,23.73
2022-10-25T05:21:38.114Z,18.97
2022-10-25T05:26:40.847Z,19.77
2022-10-25T05:31:43.538Z,19.73
2022-10-25T05:36:46.350Z,18.30
2022-10-25T05:41:49.852Z,19.97
2022-10-25T05:46:52.656Z,19.97
2022-10-25T05:51:55.375Z,18.87
2022-10-25T05:56:58.056Z,22.10
2022-10-25T06:02:00.897Z,18.93
2022-10-25T06:07:03.693Z,19.70
2022-10-25T06:12:08.874Z,27.13
2022-10-25T06:17:13.922Z,25.73
2022-10-25T06:22:16.620Z,24.53
2022-10-25T06:27:19.386Z,29.83
2022-10-25T06:32:22.066Z,23.27
2022-10-25T06:37:24.799Z,19.10
2022-10-25T06:42:27.475Z,17.07
2022-10-25T06:47:30.138Z,18.30
2022-10-25T06:52:32.837Z,23.83
2022-10-25T06:57:35.626Z,16.37
2022-10-25T07:02:38.338Z,19.13
2022-10-25T07:07:41.055Z,16.23
2022-10-25T07:12:43.970Z,18.60
2022-10-25T07:17:46.967Z,19.47
2022-10-25T07:22:50.318Z,15.30
2022-10-25T07:27:53.006Z,13.17
2022-10-25T07:32:55.682Z,16.40
2022-10-25T07:37:58.499Z,16.73
2022-10-25T07:43:01.195Z,15.47
2022-10-25T07:48:03.970Z,14.97
2022-10-25T07:53:06.720Z,12.60
2022-10-25T07:58:11.282Z,14.63
2022-10-25T08:03:15.101Z,16.23
2022-10-25T08:08:17.962Z,15.43
2022-10-25T08:13:21.036Z,17.50
2022-10-25T08:18:24.500Z,14.90
2022-10-25T08:23:27.297Z,12.70
2022-10-25T08:28:31.421Z,12.07
2022-10-25T08:33:34.431Z,11.93
2022-10-25T08:38:37.181Z,15.80
2022-10-25T08:43:52.564Z,10.90
2022-10-25T08:49:25.541Z,12.30
2022-10-25T08:54:35.937Z,14.83
2022-10-25T08:59:41.374Z,12.70
2022-10-25T09:04:44.175Z,16.20
2022-10-25T09:09:59.993Z,12.23
2022-10-25T09:15:47.060Z,13.13
2022-10-25T09:20:51.742Z,13.40
2022-10-25T09:26:32.408Z,12.33
2022-10-25T09:31:43.157Z,13.27
2022-10-25T09:36:48.177Z,12.93
2022-10-25T09:41:55.620Z,11.80
2022-10-25T09:47:09.662Z,11.37
2022-10-25T09:52:35.096Z,12.70
2022-10-25T09:57:37.812Z,13.27
2022-10-25T10:02:41.105Z,14.37
2022-10-25T10:07:46.144Z,11.20
2022-10-25T10:18:27.089Z,11.57
2022-10-25T10:24:00.005Z,11.47
2022-10-25T10:29:35.039Z,12.33
2022-10-25T10:34:43.120Z,14.57
2022-10-25T10:40:02.996Z,9.10
2022-10-25T10:45:08.791Z,10.83
2022-10-25T10:50:23.175Z,10.47
2022-10-25T10:55:32.075Z,12.37
2022-10-25T11:00:35.467Z,12.93
2022-10-25T11:05:38.815Z,14.60
2022-10-25T11:10:41.517Z,10.43
2022-10-25T11:15:50.100Z,10.17
2022-10-25T11:20:57.198Z,11.03
2022-10-25T11:26:06.035Z,9.67
2022-10-25T11:31:26.753Z,9.93
2022-10-25T11:36:43.848Z,10.17
2022-10-25T11:41:50.286Z,7.67
2022-10-25T11:46:58.194Z,11.23
2022-10-25T11:52:16.704Z,7.57
2022-10-25T11:57:58.530Z,7.60
2022-10-25T12:03:09.882Z,9.80
2022-10-25T12:08:33.908Z,5.80
2022-10-25T12:13:47.093Z,9.30
2022-10-25T12:19:09.211Z,6.67
2022-10-25T12:24:27.729Z,8.80
2022-10-25T12:29:42.935Z,6.73
2022-10-25T12:34:51.394Z,7.83
2022-10-25T12:39:54.208Z,8.33
2022-10-25T12:45:28.560Z,5.90
2022-10-25T12:50:39.712Z,7.13
2022-10-25T12:55:57.928Z,6.97
2022-10-25T13:01:03.436Z,11.47
2022-10-25T13:06:38.234Z,17.53
2022-10-25T13:12:07.098Z,7.90
2022-10-25T13:17:18.867Z,7.43
2022-10-25T13:22:37.442Z,6.40
2022-10-25T13:28:10.843Z,6.97
2022-10-25T13:33:21.602Z,5.33
2022-10-25T13:38:26.579Z,4.93
2022-10-25T13:43:29.263Z,5.37
2022-10-25T13:48:34.216Z,7.00
2022-10-25T13:53:39.893Z,4.17
2022-10-25T13:58:52.982Z,6.97
2022-10-25T14:04:20.115Z,5.53
2022-10-25T14:09:41.265Z,7.67
2022-10-25T14:15:03.103Z,4.37
2022-10-25T14:20:30.758Z,6.20
2022-10-25T14:26:03.338Z,8.43
2022-10-25T14:31:06.788Z,9.77
2022-10-25T14:36:10.585Z,7.93
2022-10-25T14:41:13.474Z,6.03
2022-10-25T14:46:17.927Z,5.30
2022-10-25T14:51:27.723Z,6.03
2022-10-25T14:56:50.977Z,5.17
2022-10-25T15:01:55.703Z,4.57
2022-10-25T15:06:58.604Z,6.50
2022-10-25T15:12:12.330Z,7.67
2022-10-25T15:17:22.890Z,7.73
2022-10-25T15:22:31.178Z,9.00
2022-10-25T15:27:39.859Z,6.97
2022-10-25T15:32:43.098Z,8.00
2022-10-25T15:37:45.925Z,9.27
2022-10-25T15:42:49.021Z,11.53
2022-10-25T15:47:55.081Z,12.10
2022-10-25T15:52:58.565Z,11.97
2022-10-25T15:58:01.365Z,9.87
2022-10-25T16:03:04.582Z,9.40
2022-10-25T16:08:08.676Z,11.10
2022-10-25T16:13:23.510Z,8.93
2022-10-25T16:23:34.053Z,11.37
2022-10-25T16:28:36.721Z,11.60
2022-10-25T16:33:39.449Z,15.40
2022-10-25T16:38:42.214Z,18.47
2022-10-25T16:43:48.454Z,12.83
2022-10-25T16:48:53.064Z,12.60
2022-10-25T16:53:58.393Z,12.77
2022-10-25T16:59:01.105Z,12.63
2022-10-25T17:04:05.235Z,13.90
2022-10-25T17:09:08.151Z,12.60
2022-10-25T17:14:11.665Z,14.57
2022-10-25T17:19:14.378Z,14.77
2022-10-25T17:24:17.172Z,17.93
2022-10-25T17:29:20.182Z,14.70
2022-10-25T17:34:23.454Z,23.03
2022-10-25T17:39:26.330Z,15.67
2022-10-25T17:44:29.058Z,18.43
2022-10-25T17:49:31.773Z,19.77
2022-10-25T17:54:35.087Z,16.17
2022-10-25T17:59:37.886Z,18.97
2022-10-25T18:04:53.625Z,17.13
2022-10-25T18:09:58.999Z,23.07
2022-10-25T18:15:01.697Z,20.60
2022-10-25T18:20:04.946Z,15.97
2022-10-25T18:25:08.031Z,17.97
2022-10-25T18:30:11.376Z,15.27
2022-10-25T18:35:14.474Z,15.97
2022-10-25T18:40:17.222Z,17.37
2022-10-25T18:45:19.991Z,22.27
2022-10-25T18:50:23.029Z,20.03
2022-10-25T18:55:26.777Z,17.90
2022-10-25T19:00:31.523Z,13.87
2022-10-25T19:05:39.915Z,16.67
2022-10-25T19:10:43.062Z,15.87
2022-10-25T19:15:46.775Z,16.27
2022-10-25T19:20:49.854Z,22.37
2022-10-25T19:25:53.155Z,17.13
2022-10-25T19:30:55.962Z,14.77
2022-10-25T19:36:09.903Z,17.40
2022-10-25T19:41:16.396Z,19.80
2022-10-25T19:46:19.837Z,15.13
2022-10-25T19:51:22.621Z,19.83
2022-10-25T19:56:25.329Z,17.97
2022-10-25T20:01:28.301Z,22.70
2022-10-25T20:06:33.410Z,21.87
2022-10-25T20:11:36.253Z,30.07
2022-10-25T20:16:39.167Z,19.83
2022-10-25T20:21:41.957Z,22.87
2022-10-25T20:26:54.620Z,19.77
2022-10-25T20:31:57.794Z,20.40
2022-10-25T20:37:04.295Z,18.30
2022-10-25T20:42:06.975Z,21.07
2022-10-25T20:47:09.854Z,21.03
2022-10-25T20:52:12.525Z,23.77
2022-10-25T20:57:15.227Z,23.13
2022-10-25T21:02:17.948Z,21.60
2022-10-25T21:07:20.739Z,23.10
2022-10-25T21:12:23.482Z,20.40
2022-10-25T21:17:26.208Z,23.63
2022-10-25T21:22:28.920Z,24.60
2022-10-25T21:27:31.628Z,25.40
2022-10-25T21:32:35.260Z,23.87
2022-10-25T21:37:37.923Z,24.10
2022-10-25T21:42:40.632Z,25.90
2022-10-25T21:47:43.370Z,25.77
2022-10-25T21:52:46.146Z,21.27
2022-10-25T21:57:53.254Z,24.27
2022-10-25T22:02:56.998Z,25.53
2022-10-25T22:07:59.690Z,19.97
2022-10-25T22:13:02.361Z,20.60
2022-10-25T22:18:05.068Z,21.97
2022-10-25T22:23:07.771Z,20.57
2022-10-25T22:28:10.555Z,21.33
2022-10-25T22:33:13.597Z,20.70
2022-10-25T22:38:16.284Z,27.23
2022-10-25T22:43:18.942Z,25.93
2022-10-25T22:48:22.113Z,23.60
2022-10-25T22:53:24.767Z,27.30
2022-10-25T22:58:28.669Z,23.77
2022-10-25T23:03:36.014Z,23.87
2022-10-25T23:08:39.001Z,22.70
2022-10-25T23:13:42.284Z,25.57
2022-10-25T23:18:45.400Z,22.97
2022-10-25T23:23:48.398Z,23.97
2022-10-25T23:28:51.395Z,21.17
